createdAt,value
2022-11-30T00:33:24.783Z,5.11
2022-11-30T00:36:04.263Z,5.19
2022-11-30T00:38:32.753Z,5.39
2022-11-30T00:41:06.308Z,5.29
2022-11-30T00:43:41.347Z,5.21
2022-11-30T00:46:11.153Z,5.14
2022-11-30T00:48:42.274Z,4.90
2022-11-30T00:51:16.475Z,5.13
2022-11-30T00:53:52.855Z,5.06
2022-11-30T00:56:20.168Z,4.92
2022-11-30T01:04:49.413Z,5.40
2022-11-30T01:07:17.072Z,5.42
2022-11-30T01:09:44.057Z,5.53
2022-11-30T01:12:11.516Z,5.08
2022-11-30T01:14:38.566Z,5.08
2022-11-30T01:17:05.437Z,5.12
2022-11-30T01:19:32.783Z,5.02
2022-11-30T01:21:59.481Z,5.27
2022-11-30T01:24:26.127Z,5.25
2022-11-30T01:27:26.029Z,5.36
2022-11-30T01:30:25.560Z,5.17
2022-11-30T01:33:21.606Z,5.24
2022-11-30T01:40:11.121Z,5.47
2022-11-30T01:43:21.562Z,5.43
2022-11-30T01:45:56.767Z,5.23
2022-11-30T02:10:43.709Z,5.16
2022-11-30T02:13:21.486Z,5.12
2022-11-30T02:16:14.215Z,5.33
2022-11-30T02:18:55.366Z,5.38
2022-11-30T02:27:37.544Z,5.65
2022-11-30T02:36:14.536Z,5.34
2022-11-30T02:38:41.874Z,5.30
2022-11-30T02:41:08.853Z,5.20
2022-11-30T02:43:36.478Z,5.29
2022-11-30T02:46:36.352Z,5.18
2022-11-30T02:49:27.323Z,5.18
2022-11-30T02:52:33.410Z,5.44
2022-11-30T02:55:13.339Z,5.44
2022-11-30T02:57:40.397Z,5.37
2022-11-30T03:00:09.878Z,5.19
2022-11-30T03:02:56.228Z,5.11
2022-11-30T03:05:23.877Z,5.08
2022-11-30T03:07:52.558Z,5.21
2022-11-30T03:25:24.985Z,4.94
2022-11-30T03:27:51.659Z,5.23
2022-11-30T03:35:48.519Z,5.55
2022-11-30T03:56:03.997Z,5.38
2022-11-30T03:58:52.316Z,5.11
2022-11-30T04:01:29.753Z,5.45
2022-11-30T04:04:33.277Z,5.31
2022-11-30T04:07:08.878Z,5.24
2022-11-30T04:09:46.684Z,5.42
2022-11-30T04:12:57.615Z,5.45
2022-11-30T04:16:11.053Z,5.34
2022-11-30T04:18:52.100Z,5.28
2022-11-30T04:21:19.933Z,5.08
2022-11-30T04:23:49.087Z,5.25
2022-11-30T04:26:17.532Z,5.48
2022-11-30T04:28:46.561Z,5.10
2022-11-30T04:31:13.748Z,5.20
2022-11-30T04:33:41.837Z,5.35
2022-11-30T04:36:18.796Z,5.15
2022-11-30T04:38:46.431Z,5.09
2022-11-30T04:41:13.732Z,5.10
2022-11-30T04:43:40.896Z,5.19
2022-11-30T04:46:10.861Z,5.37
2022-11-30T04:48:43.975Z,5.40
2022-11-30T04:51:12.987Z,5.44
2022-11-30T05:55:30.558Z,6.88
2022-11-30T05:57:57.500Z,7.40
2022-11-30T06:00:24.604Z,7.82
2022-11-30T06:03:00.563Z,7.18
2022-11-30T07:58:07.490Z,7.17
2022-11-30T08:00:34.422Z,7.03
2022-11-30T08:03:03.866Z,7.05
2022-11-30T08:05:31.335Z,7.32
2022-11-30T08:29:33.832Z,7.85
2022-11-30T11:32:34.988Z,9.82
2022-11-30T12:38:06.901Z,9.32
2022-11-30T13:34:25.239Z,8.88
2022-11-30T14:34:39.406Z,8.60
2022-11-30T18:12:02.037Z,7.47
2022-11-30T18:14:56.819Z,7.48
2022-11-30T18:25:34.226Z,7.47
2022-11-30T18:28:03.973Z,7.53
2022-11-30T18:30:31.014Z,7.44
2022-11-30T18:32:58.257Z,7.25
2022-11-30T18:35:25.858Z,7.55
2022-11-30T18:37:52.692Z,7.48
2022-11-30T18:40:26.037Z,7.53
2022-11-30T18:43:40.049Z,7.54
2022-11-30T18:46:12.877Z,7.34
2022-11-30T18:48:41.497Z,7.46
2022-11-30T18:51:27.065Z,7.28
2022-11-30T18:54:12.816Z,7.27
2022-11-30T19:12:57.945Z,7.17
2022-11-30T19:15:57.214Z,7.30
2022-11-30T19:37:44.002Z,6.69
2022-11-30T19:40:11.905Z,6.83
2022-11-30T19:42:45.313Z,6.87
2022-11-30T19:45:12.508Z,7.03
2022-11-30T19:47:55.439Z,6.73
2022-11-30T19:54:04.276Z,7.03
2022-11-30T19:56:36.255Z,6.65
2022-11-30T19:59:20.316Z,6.83
2022-11-30T20:01:55.770Z,6.82
2022-11-30T20:17:30.035Z,6.73
2022-11-30T20:20:11.930Z,6.68
2022-11-30T20:22:39.190Z,6.73
2022-11-30T20:25:06.928Z,6.70
2022-11-30T20:27:35.325Z,6.76
2022-11-30T20:30:02.377Z,6.71
2022-11-30T20:32:37.996Z,6.50
2022-11-30T20:35:06.168Z,6.60
2022-11-30T20:37:36.974Z,6.58
2022-11-30T20:40:07.950Z,6.64
2022-11-30T20:42:34.858Z,6.62
2022-11-30T20:45:04.343Z,6.46
2022-11-30T20:47:35.319Z,6.26
2022-11-30T20:50:03.523Z,6.82
2022-11-30T20:52:30.382Z,6.83
2022-11-30T20:54:57.225Z,6.79
2022-11-30T20:57:24.052Z,6.95
2022-11-30T20:59:53.517Z,6.74
2022-11-30T21:02:20.449Z,6.89
2022-11-30T21:04:47.610Z,6.89
2022-11-30T21:07:14.745Z,6.66
2022-11-30T21:09:41.562Z,6.63
2022-11-30T21:12:08.389Z,6.61
2022-11-30T21:14:35.327Z,6.53
2022-11-30T21:17:02.195Z,6.63
2022-11-30T21:19:49.163Z,6.39
2022-11-30T21:22:39.255Z,6.45
2022-11-30T21:26:11.149Z,6.44
2022-11-30T21:28:39.145Z,6.67
2022-11-30T21:31:42.513Z,6.75
2022-11-30T21:39:12.831Z,6.62
2022-11-30T22:00:14.642Z,6.60
2022-11-30T22:02:54.603Z,6.65
2022-11-30T22:05:58.702Z,6.64
2022-11-30T22:08:26.077Z,6.70
2022-11-30T22:10:53.233Z,6.56
2022-11-30T22:13:20.934Z,6.70
2022-11-30T22:15:57.135Z,6.36
2022-11-30T22:18:25.047Z,6.53
2022-11-30T22:21:05.161Z,6.44
2022-11-30T22:23:33.638Z,6.47
2022-11-30T22:26:23.878Z,6.27
2022-11-30T22:28:56.407Z,6.36
2022-11-30T22:31:30.504Z,6.32
2022-11-30T22:34:01.191Z,6.45
2022-11-30T22:36:30.598Z,6.26
2022-11-30T22:39:00.204Z,6.17
2022-11-30T22:41:28.403Z,6.36
2022-11-30T22:43:56.873Z,6.24
2022-11-30T22:46:26.640Z,6.21
2022-11-30T22:48:54.433Z,6.17
2022-11-30T22:51:27.031Z,6.55
2022-11-30T22:53:59.168Z,6.50
2022-11-30T22:56:36.544Z,6.51
2022-11-30T22:59:07.153Z,6.58
2022-11-30T23:01:37.446Z,6.54
2022-11-30T23:04:09.781Z,6.58
2022-11-30T23:06:39.207Z,6.35
2022-11-30T23:09:11.040Z,6.25
2022-11-30T23:11:38.321Z,6.21
2022-11-30T23:14:10.735Z,6.27
2022-11-30T23:16:38.890Z,6.16
2022-11-30T23:19:06.474Z,6.28
2022-11-30T23:21:42.213Z,6.23
2022-11-30T23:24:17.810Z,6.27
2022-11-30T23:26:55.938Z,6.28
2022-11-30T23:29:23.058Z,6.05
2022-11-30T23:31:52.582Z,6.14
2022-11-30T23:34:26.814Z,6.03
2022-11-30T23:36:58.113Z,6.13
2022-11-30T23:39:26.344Z,6.08
2022-11-30T23:42:14.052Z,6.10
2022-11-30T23:52:04.587Z,6.07
2022-11-30T23:54:47.703Z,6.20
2022-11-30T23:57:24.109Z,6.06
2022-11-30T23:59:54.259Z,6.07
